createdAt,value
2023-12-19T00:01:42.363Z,21.78
2023-12-19T00:04:08.832Z,22.20
2023-12-19T00:06:35.319Z,20.77
2023-12-19T00:09:01.731Z,21.05
2023-12-19T00:11:28.086Z,21.89
2023-12-19T00:13:54.533Z,23.41
2023-12-19T00:16:20.909Z,22.01
2023-12-19T00:18:47.444Z,21.86
2023-12-19T00:21:13.877Z,21.49
2023-12-19T00:23:40.242Z,22.14
2023-12-19T00:26:06.672Z,22.38
2023-12-19T00:28:33.076Z,21.67
2023-12-19T00:30:59.551Z,20.78
2023-12-19T00:33:26.130Z,20.84
2023-12-19T00:35:52.590Z,20.54
2023-12-19T00:38:18.977Z,20.14
2023-12-19T00:40:45.360Z,21.72
2023-12-19T00:43:11.790Z,21.80
2023-12-19T00:45:38.244Z,20.33
2023-12-19T00:48:04.688Z,21.23
2023-12-19T00:50:31.130Z,20.68
2023-12-19T00:52:57.518Z,20.04
2023-12-19T00:55:23.923Z,20.55
2023-12-19T00:57:50.333Z,19.94
2023-12-19T01:00:16.705Z,20.35
2023-12-19T01:02:43.299Z,20.02
2023-12-19T01:05:09.814Z,19.54
2023-12-19T01:07:36.263Z,19.65
2023-12-19T01:10:02.689Z,19.29
2023-12-19T01:12:29.074Z,19.51
2023-12-19T01:14:55.434Z,19.86
2023-12-19T01:17:21.835Z,19.77
2023-12-19T01:19:48.312Z,19.66
2023-12-19T01:22:14.835Z,19.11
2023-12-19T01:24:41.306Z,20.22
2023-12-19T01:27:07.666Z,20.24
2023-12-19T01:29:34.017Z,18.33
2023-12-19T01:32:00.422Z,20.17
2023-12-19T01:34:26.857Z,19.63
2023-12-19T01:36:57.325Z,18.77
2023-12-19T01:39:24.802Z,18.92
2023-12-19T01:41:51.227Z,19.44
2023-12-19T01:44:17.590Z,18.90
2023-12-19T01:46:43.974Z,19.16
2023-12-19T01:49:10.402Z,19.59
2023-12-19T01:51:36.891Z,18.63
2023-12-19T01:54:03.311Z,18.58
2023-12-19T01:56:29.712Z,18.01
2023-12-19T01:58:56.097Z,17.85
2023-12-19T02:01:22.572Z,16.53
2023-12-19T02:03:49.055Z,17.44
2023-12-19T02:06:15.477Z,16.76
2023-12-19T02:08:41.820Z,17.01
2023-12-19T02:11:08.177Z,16.49
2023-12-19T02:13:34.569Z,16.81
2023-12-19T02:16:00.978Z,16.35
2023-12-19T02:18:27.543Z,16.78
2023-12-19T02:20:54.324Z,16.95
2023-12-19T02:23:20.722Z,17.20
2023-12-19T02:25:47.122Z,17.02
2023-12-19T02:28:13.494Z,17.12
2023-12-19T02:30:42.091Z,16.92
2023-12-19T02:33:10.516Z,17.69
2023-12-19T02:35:36.928Z,17.39
2023-12-19T02:38:03.343Z,17.08
2023-12-19T02:40:29.748Z,16.71
2023-12-19T02:42:56.184Z,16.58
2023-12-19T02:45:22.629Z,16.49
2023-12-19T02:47:49.157Z,16.86
2023-12-19T02:50:15.606Z,16.71
2023-12-19T02:52:42.243Z,16.37
2023-12-19T02:55:08.826Z,16.92
2023-12-19T02:57:35.294Z,16.68
2023-12-19T03:00:01.701Z,16.55
2023-12-19T03:02:28.093Z,16.37
2023-12-19T03:04:54.555Z,16.66
2023-12-19T03:07:21.043Z,16.10
2023-12-19T03:09:47.641Z,16.64
2023-12-19T03:12:14.049Z,16.49
2023-12-19T03:14:40.435Z,17.55
2023-12-19T03:17:06.801Z,16.53
2023-12-19T03:19:33.360Z,15.34
2023-12-19T03:21:59.908Z,16.79
2023-12-19T03:24:26.390Z,17.17
2023-12-19T03:26:52.785Z,16.82
2023-12-19T03:29:19.155Z,18.13
2023-12-19T03:31:45.649Z,17.79
2023-12-19T03:34:12.109Z,16.84
2023-12-19T03:36:38.570Z,16.88
2023-12-19T03:39:04.957Z,16.77
2023-12-19T03:41:31.332Z,16.08
2023-12-19T03:43:57.734Z,16.42
2023-12-19T03:46:24.112Z,16.59
2023-12-19T03:48:50.542Z,16.25
2023-12-19T03:51:16.940Z,15.50
2023-12-19T03:53:43.341Z,14.67
2023-12-19T03:56:09.694Z,15.43
2023-12-19T03:58:36.167Z,16.72
2023-12-19T04:01:02.669Z,15.96
2023-12-19T04:03:29.145Z,17.05
2023-12-19T04:05:55.616Z,17.58
2023-12-19T04:08:22.077Z,15.96
2023-12-19T04:10:48.442Z,15.77
2023-12-19T04:13:14.931Z,16.09
2023-12-19T04:15:41.444Z,14.61
2023-12-19T04:18:07.851Z,15.08
2023-12-19T04:20:34.232Z,14.51
2023-12-19T04:23:00.576Z,15.13
2023-12-19T04:25:26.904Z,15.36
2023-12-19T04:27:53.337Z,16.19
2023-12-19T04:30:19.753Z,15.29
2023-12-19T04:32:46.451Z,15.50
2023-12-19T04:35:12.981Z,16.89
2023-12-19T04:37:39.361Z,16.01
2023-12-19T04:40:05.744Z,15.51
2023-12-19T04:42:32.270Z,15.89
2023-12-19T04:44:58.662Z,16.03
2023-12-19T04:47:25.097Z,16.95
2023-12-19T04:49:51.497Z,15.09
2023-12-19T04:52:17.936Z,14.12
2023-12-19T04:54:44.348Z,14.79
2023-12-19T04:57:10.754Z,14.71
2023-12-19T04:59:37.251Z,15.20
2023-12-19T05:02:03.700Z,14.60
2023-12-19T05:04:30.055Z,15.76
2023-12-19T05:06:56.508Z,16.82
2023-12-19T05:09:22.937Z,17.19
2023-12-19T05:11:49.341Z,16.63
2023-12-19T05:14:15.724Z,17.31
2023-12-19T05:16:42.103Z,16.82
2023-12-19T05:19:08.606Z,19.32
2023-12-19T05:21:35.037Z,20.13
2023-12-19T05:24:01.706Z,19.15
2023-12-19T05:26:28.057Z,18.04
2023-12-19T05:28:54.445Z,20.22
2023-12-19T05:31:20.932Z,17.17
2023-12-19T05:33:47.552Z,17.08
2023-12-19T05:36:13.992Z,18.25
2023-12-19T05:38:40.393Z,18.60
2023-12-19T05:41:06.791Z,16.37
2023-12-19T05:43:33.188Z,15.99
2023-12-19T05:45:59.766Z,15.88
2023-12-19T05:48:26.428Z,15.68
2023-12-19T05:50:52.979Z,16.18
2023-12-19T05:53:19.407Z,15.87
2023-12-19T05:55:45.804Z,16.12
2023-12-19T05:58:12.200Z,16.55
2023-12-19T06:00:38.679Z,15.60
2023-12-19T06:03:05.113Z,15.38
2023-12-19T06:05:31.656Z,16.66
2023-12-19T06:07:58.040Z,16.40
2023-12-19T06:10:24.432Z,16.14
2023-12-19T06:12:50.863Z,15.93
2023-12-19T06:15:17.274Z,15.83
2023-12-19T06:17:43.694Z,15.90
2023-12-19T06:20:10.140Z,16.76
2023-12-19T06:22:36.529Z,16.09
2023-12-19T06:25:03.074Z,15.42
2023-12-19T06:27:29.614Z,17.05
2023-12-19T06:29:57.357Z,15.42
2023-12-19T06:32:25.404Z,15.29
2023-12-19T06:34:51.866Z,16.47
2023-12-19T06:37:18.273Z,16.84
2023-12-19T06:39:44.647Z,16.27
2023-12-19T06:42:11.046Z,15.73
2023-12-19T06:44:37.398Z,15.45
2023-12-19T06:47:03.794Z,15.72
2023-12-19T06:49:30.306Z,15.97
2023-12-19T06:51:56.848Z,18.32
2023-12-19T06:54:23.309Z,21.58
2023-12-19T06:56:49.813Z,19.42
2023-12-19T06:59:16.188Z,18.16
2023-12-19T07:01:42.645Z,17.16
2023-12-19T07:04:09.159Z,17.08
2023-12-19T07:06:35.588Z,18.87
2023-12-19T07:09:01.990Z,25.56
2023-12-19T07:11:28.398Z,23.74
2023-12-19T07:13:54.760Z,21.70
2023-12-19T07:16:21.146Z,17.34
2023-12-19T07:18:47.722Z,18.35
2023-12-19T07:21:14.203Z,17.91
2023-12-19T07:23:40.596Z,16.36
2023-12-19T07:26:06.953Z,15.37
2023-12-19T07:28:33.323Z,15.10
2023-12-19T07:30:59.768Z,14.13
2023-12-19T07:33:26.282Z,14.16
2023-12-19T07:35:52.722Z,14.16
2023-12-19T07:38:19.065Z,13.75
2023-12-19T07:40:45.454Z,14.12
2023-12-19T07:43:11.945Z,15.04
2023-12-19T07:45:38.545Z,15.35
2023-12-19T07:48:05.007Z,15.44
2023-12-19T07:50:31.388Z,15.68
2023-12-19T07:52:57.766Z,15.73
2023-12-19T07:55:24.122Z,14.74
2023-12-19T07:57:50.551Z,16.12
2023-12-19T08:00:16.933Z,16.52
2023-12-19T08:02:43.588Z,15.20
2023-12-19T08:05:10.412Z,14.84
2023-12-19T08:07:36.847Z,14.79
2023-12-19T08:10:03.343Z,14.41
2023-12-19T08:12:29.892Z,15.26
2023-12-19T08:14:56.254Z,15.25
2023-12-19T08:17:22.638Z,15.42
2023-12-19T08:19:49.058Z,14.52
2023-12-19T08:22:15.424Z,14.36
2023-12-19T08:24:41.818Z,15.10
2023-12-19T08:27:08.221Z,14.94
2023-12-19T08:29:34.563Z,17.79
2023-12-19T08:32:00.954Z,19.17
2023-12-19T08:34:27.430Z,17.81
2023-12-19T08:36:53.878Z,16.64
2023-12-19T08:39:20.304Z,15.45
2023-12-19T08:41:46.716Z,15.69
2023-12-19T08:44:13.127Z,15.31
2023-12-19T08:46:39.507Z,15.71
2023-12-19T08:49:05.973Z,17.18
2023-12-19T08:51:32.406Z,15.86
2023-12-19T08:53:58.796Z,15.73
2023-12-19T08:56:25.225Z,15.56
2023-12-19T08:58:52.716Z,15.51
2023-12-19T09:01:19.297Z,15.73
2023-12-19T09:03:45.896Z,14.42
2023-12-19T09:06:12.519Z,14.51
2023-12-19T09:08:38.942Z,14.02
2023-12-19T09:11:05.338Z,14.61
2023-12-19T09:13:31.716Z,15.14
2023-12-19T09:15:58.188Z,15.30
2023-12-19T09:18:24.727Z,15.22
2023-12-19T09:20:51.232Z,15.55
2023-12-19T09:23:17.602Z,16.37
2023-12-19T09:25:43.997Z,16.78
2023-12-19T09:28:10.470Z,16.94
2023-12-19T09:30:36.974Z,17.39
2023-12-19T09:33:03.516Z,15.88
2023-12-19T09:35:29.920Z,36.07
2023-12-19T09:37:56.285Z,26.39
2023-12-19T09:40:22.738Z,17.17
2023-12-19T09:42:49.421Z,17.20
2023-12-19T09:45:16.545Z,16.91
2023-12-19T09:47:43.278Z,16.52
2023-12-19T09:50:09.646Z,16.67
2023-12-19T09:52:36.035Z,16.68
2023-12-19T09:55:02.421Z,17.09
2023-12-19T09:57:28.845Z,19.45
2023-12-19T09:59:57.405Z,18.21
2023-12-19T10:02:24.235Z,17.51
2023-12-19T10:04:50.738Z,17.08
2023-12-19T10:07:17.187Z,17.94
2023-12-19T10:09:43.833Z,18.56
2023-12-19T10:12:10.213Z,17.41
2023-12-19T10:14:36.602Z,15.92
2023-12-19T10:17:03.031Z,16.42
2023-12-19T10:19:29.548Z,15.78
2023-12-19T10:21:55.987Z,15.43
2023-12-19T10:24:22.381Z,15.14
2023-12-19T10:26:48.734Z,15.60
2023-12-19T10:29:15.107Z,15.78
2023-12-19T10:31:41.537Z,15.99
2023-12-19T10:34:08.082Z,15.40
2023-12-19T10:36:34.604Z,15.03
2023-12-19T10:39:01.034Z,15.78
2023-12-19T10:41:27.427Z,18.76
2023-12-19T10:43:53.788Z,16.62
2023-12-19T10:46:20.211Z,14.69
2023-12-19T10:48:46.701Z,14.23
2023-12-19T10:51:13.153Z,13.98
2023-12-19T10:53:39.532Z,13.59
2023-12-19T10:56:06.038Z,14.12
2023-12-19T10:58:32.384Z,14.14
2023-12-19T11:00:58.873Z,13.15
2023-12-19T11:03:25.295Z,13.15
2023-12-19T11:05:51.758Z,12.40
2023-12-19T11:08:18.198Z,12.98
2023-12-19T11:10:44.583Z,12.55
2023-12-19T11:13:11.009Z,12.77
2023-12-19T11:15:37.445Z,13.26
2023-12-19T11:18:03.940Z,12.55
2023-12-19T11:20:32.109Z,63.27
2023-12-19T11:22:59.657Z,17.16
2023-12-19T11:25:28.717Z,12.74
2023-12-19T11:27:57.288Z,16.57
2023-12-19T11:30:23.739Z,20.68
2023-12-19T11:32:50.323Z,15.28
2023-12-19T11:35:16.818Z,18.87
2023-12-19T11:37:43.499Z,14.75
2023-12-19T11:40:10.227Z,18.08
2023-12-19T11:42:36.752Z,18.31
2023-12-19T11:45:03.173Z,14.66
2023-12-19T11:47:29.572Z,13.84
2023-12-19T11:49:56.104Z,14.92
2023-12-19T11:52:22.558Z,15.07
2023-12-19T11:54:49.070Z,14.62
2023-12-19T11:57:15.545Z,16.40
2023-12-19T11:59:41.914Z,14.48
2023-12-19T12:02:08.265Z,16.26
2023-12-19T12:04:34.762Z,14.59
2023-12-19T12:07:01.232Z,15.12
2023-12-19T12:09:27.678Z,12.48
2023-12-19T12:11:54.070Z,12.35
2023-12-19T12:14:20.422Z,14.12
2023-12-19T12:16:46.830Z,14.94
2023-12-19T12:19:13.312Z,14.92
2023-12-19T12:21:39.832Z,13.91
2023-12-19T12:24:06.215Z,13.92
2023-12-19T12:26:32.551Z,13.80
2023-12-19T12:28:58.938Z,13.29
2023-12-19T12:31:28.787Z,12.72
2023-12-19T12:33:55.668Z,12.91
2023-12-19T12:36:22.093Z,13.18
2023-12-19T12:38:48.584Z,13.60
2023-12-19T12:41:14.955Z,12.78
2023-12-19T12:43:41.797Z,12.39
2023-12-19T12:46:08.477Z,13.74
2023-12-19T12:48:35.190Z,14.63
2023-12-19T12:51:01.656Z,14.46
2023-12-19T12:53:28.122Z,14.96
2023-12-19T12:55:54.492Z,16.38
2023-12-19T12:58:20.888Z,17.07
2023-12-19T13:00:47.659Z,17.22
2023-12-19T13:03:14.250Z,15.47
2023-12-19T13:05:40.769Z,15.78
2023-12-19T13:08:07.192Z,17.56
2023-12-19T13:10:33.569Z,16.58
2023-12-19T13:12:59.947Z,17.95
2023-12-19T13:15:26.344Z,17.74
2023-12-19T13:17:52.783Z,18.81
2023-12-19T13:20:19.205Z,16.46
2023-12-19T13:22:45.626Z,15.33
2023-12-19T13:25:12.013Z,14.54
2023-12-19T13:27:38.458Z,14.77
2023-12-19T13:30:04.866Z,14.11
2023-12-19T13:32:31.291Z,13.41
2023-12-19T13:34:57.709Z,13.92
2023-12-19T13:37:24.183Z,13.90
2023-12-19T13:39:50.642Z,12.83
2023-12-19T13:42:17.055Z,12.99
2023-12-19T13:44:43.405Z,12.64
2023-12-19T13:47:09.778Z,12.57
2023-12-19T13:49:36.265Z,12.17
2023-12-19T13:52:02.722Z,12.76
2023-12-19T13:54:29.191Z,12.33
2023-12-19T13:56:55.549Z,12.01
2023-12-19T13:59:21.911Z,11.86
2023-12-19T14:01:48.432Z,12.54
2023-12-19T14:04:17.388Z,12.77
2023-12-19T14:06:43.870Z,12.19
2023-12-19T14:09:10.241Z,12.53
2023-12-19T14:11:36.588Z,12.36
2023-12-19T14:14:02.982Z,12.51
2023-12-19T14:16:29.395Z,12.94
2023-12-19T14:18:55.965Z,12.66
2023-12-19T14:21:22.522Z,12.76
2023-12-19T14:23:48.943Z,12.91
2023-12-19T14:26:15.345Z,12.05
2023-12-19T14:28:41.736Z,11.47
2023-12-19T14:31:08.189Z,11.20
2023-12-19T14:33:34.632Z,12.00
2023-12-19T14:36:01.064Z,11.97
2023-12-19T14:38:27.434Z,12.01
2023-12-19T14:40:53.815Z,12.25
2023-12-19T14:43:20.264Z,13.56
2023-12-19T14:45:46.776Z,13.08
2023-12-19T14:48:13.335Z,12.77
2023-12-19T14:50:40.040Z,13.57
2023-12-19T14:53:06.528Z,13.89
2023-12-19T14:55:33.008Z,14.29
2023-12-19T14:57:59.433Z,14.37
2023-12-19T15:00:25.818Z,14.10
2023-12-19T15:02:52.227Z,14.84
2023-12-19T15:05:18.611Z,14.07
2023-12-19T15:07:45.299Z,13.32
2023-12-19T15:10:11.992Z,13.86
2023-12-19T15:12:38.466Z,14.21
2023-12-19T15:15:04.932Z,14.26
2023-12-19T15:17:31.368Z,14.60
2023-12-19T15:19:57.765Z,14.11
2023-12-19T15:22:24.181Z,14.25
2023-12-19T15:24:50.565Z,13.86
2023-12-19T15:27:16.958Z,14.18
2023-12-19T15:29:43.311Z,14.32
2023-12-19T15:32:09.695Z,14.79
2023-12-19T15:34:36.198Z,14.89
2023-12-19T15:37:02.707Z,14.86
2023-12-19T15:39:29.122Z,14.26
2023-12-19T15:41:55.494Z,14.21
2023-12-19T15:44:21.902Z,17.77
2023-12-19T15:46:48.298Z,18.25
2023-12-19T15:49:15.465Z,14.78
2023-12-19T15:51:42.203Z,14.80
2023-12-19T15:54:08.779Z,16.90
2023-12-19T15:56:35.273Z,15.36
2023-12-19T15:59:01.743Z,15.43
2023-12-19T16:01:28.220Z,15.41
2023-12-19T16:03:54.761Z,14.63
2023-12-19T16:06:21.265Z,14.91
2023-12-19T16:08:47.665Z,14.51
2023-12-19T16:11:14.083Z,15.43
2023-12-19T16:13:40.497Z,20.44
2023-12-19T16:16:06.904Z,17.22
2023-12-19T16:18:33.415Z,16.10
2023-12-19T16:20:59.862Z,16.08
2023-12-19T16:23:26.276Z,18.91
2023-12-19T16:25:52.668Z,21.12
2023-12-19T16:28:19.030Z,19.51
2023-12-19T16:30:45.488Z,17.21
2023-12-19T16:33:11.947Z,17.35
2023-12-19T16:35:38.363Z,18.21
2023-12-19T16:38:04.731Z,18.29
2023-12-19T16:40:31.126Z,17.32
2023-12-19T16:42:57.562Z,16.66
2023-12-19T16:45:23.974Z,15.55
2023-12-19T16:47:50.412Z,14.33
2023-12-19T16:50:17.071Z,13.13
2023-12-19T16:52:43.955Z,14.62
2023-12-19T16:55:10.625Z,14.64
2023-12-19T16:57:37.089Z,15.32
2023-12-19T17:00:03.528Z,15.26
2023-12-19T17:02:29.922Z,15.47
2023-12-19T17:04:56.361Z,15.37
2023-12-19T17:07:22.847Z,15.77
2023-12-19T17:09:49.233Z,16.77
2023-12-19T17:12:15.629Z,17.19
2023-12-19T17:14:42.000Z,16.96
2023-12-19T17:17:08.378Z,17.10
2023-12-19T17:19:34.836Z,16.86
2023-12-19T17:22:01.308Z,17.04
2023-12-19T17:24:36.077Z,17.34
2023-12-19T17:27:07.091Z,18.02
2023-12-19T17:29:33.457Z,17.37
2023-12-19T17:31:59.923Z,17.24
2023-12-19T17:34:26.537Z,17.69
2023-12-19T17:36:53.031Z,17.49
2023-12-19T17:39:19.443Z,18.55
2023-12-19T17:41:45.810Z,19.11
2023-12-19T17:44:12.173Z,18.71
2023-12-19T17:46:38.560Z,19.01
2023-12-19T17:49:05.005Z,19.80
2023-12-19T17:51:31.552Z,19.74
2023-12-19T17:53:57.928Z,20.40
2023-12-19T17:56:24.306Z,20.17
2023-12-19T17:58:50.716Z,20.33
2023-12-19T18:01:17.099Z,21.47
2023-12-19T18:03:43.556Z,22.52
2023-12-19T18:06:10.033Z,20.52
2023-12-19T18:08:36.410Z,20.49
2023-12-19T18:11:02.808Z,20.45
2023-12-19T18:13:29.283Z,20.90
2023-12-19T18:15:55.809Z,23.61
2023-12-19T18:18:22.289Z,29.08
2023-12-19T18:20:48.707Z,20.83
2023-12-19T18:23:15.065Z,21.80
2023-12-19T18:25:41.464Z,22.50
2023-12-19T18:28:07.880Z,20.82
2023-12-19T18:30:34.360Z,17.50
2023-12-19T18:33:00.770Z,18.11
2023-12-19T18:35:27.188Z,17.99
2023-12-19T18:37:53.557Z,18.46
2023-12-19T18:40:19.968Z,18.42
2023-12-19T18:42:46.647Z,17.00
2023-12-19T18:45:13.150Z,19.11
2023-12-19T18:47:39.579Z,20.44
2023-12-19T18:50:05.980Z,17.33
2023-12-19T18:52:32.413Z,17.11
2023-12-19T18:54:58.885Z,16.61
2023-12-19T18:57:25.281Z,16.62
2023-12-19T18:59:51.638Z,16.42
2023-12-19T19:02:18.027Z,17.35
2023-12-19T19:04:44.642Z,18.07
2023-12-19T19:07:11.221Z,19.27
2023-12-19T19:09:37.649Z,18.99
2023-12-19T19:12:04.021Z,17.73
2023-12-19T19:14:30.421Z,18.60
2023-12-19T19:16:56.765Z,18.89
2023-12-19T19:19:23.258Z,18.52
2023-12-19T19:21:49.713Z,18.52
2023-12-19T19:24:16.088Z,18.68
2023-12-19T19:26:42.490Z,18.72
2023-12-19T19:29:08.853Z,19.53
2023-12-19T19:31:35.299Z,19.32
2023-12-19T19:34:01.819Z,19.62
2023-12-19T19:36:28.289Z,20.03
2023-12-19T19:38:54.663Z,20.34
2023-12-19T19:41:21.049Z,21.12
2023-12-19T19:43:47.397Z,20.41
2023-12-19T19:46:13.816Z,20.94
2023-12-19T19:48:40.471Z,21.21
2023-12-19T19:51:06.925Z,22.42
2023-12-19T19:53:33.328Z,22.13
2023-12-19T19:55:59.740Z,23.66
2023-12-19T19:58:26.133Z,22.82
2023-12-19T20:00:52.632Z,24.96
2023-12-19T20:03:19.073Z,25.86
2023-12-19T20:05:45.511Z,28.62
2023-12-19T20:08:11.920Z,22.36
2023-12-19T20:10:38.306Z,22.92
2023-12-19T20:13:04.818Z,22.79
2023-12-19T20:15:31.196Z,22.42
2023-12-19T20:17:57.658Z,22.08
2023-12-19T20:20:24.068Z,22.36
2023-12-19T20:22:51.516Z,22.84
2023-12-19T20:25:18.465Z,21.95
2023-12-19T20:27:45.227Z,21.50
2023-12-19T20:30:11.804Z,22.21
2023-12-19T20:32:38.235Z,21.82
2023-12-19T20:35:04.690Z,21.45
2023-12-19T20:37:31.136Z,20.66
2023-12-19T20:39:57.521Z,19.96
2023-12-19T20:42:23.912Z,20.38
2023-12-19T20:44:50.292Z,20.54
2023-12-19T20:47:16.640Z,21.31
2023-12-19T20:49:43.081Z,22.54
2023-12-19T20:52:09.504Z,23.25
2023-12-19T20:54:35.985Z,22.63
2023-12-19T20:57:02.360Z,22.34
2023-12-19T20:59:28.760Z,23.50
2023-12-19T21:01:55.188Z,46.54
2023-12-19T21:04:21.654Z,48.91
2023-12-19T21:06:48.169Z,49.00
2023-12-19T21:09:14.546Z,32.43
2023-12-19T21:11:40.936Z,26.72
2023-12-19T21:14:07.343Z,25.80
2023-12-19T21:16:33.732Z,25.11
2023-12-19T21:19:00.152Z,24.11
2023-12-19T21:21:26.578Z,23.57
2023-12-19T21:23:52.974Z,24.35
2023-12-19T21:26:19.332Z,23.60
2023-12-19T21:28:45.683Z,24.01
2023-12-19T21:31:12.441Z,24.94
2023-12-19T21:33:39.246Z,24.79
2023-12-19T21:36:05.807Z,27.70
2023-12-19T21:38:32.177Z,24.35
2023-12-19T21:40:58.529Z,23.99
2023-12-19T21:43:25.003Z,24.23
2023-12-19T21:45:51.444Z,24.60
2023-12-19T21:48:17.917Z,24.56
2023-12-19T21:50:44.334Z,23.73
2023-12-19T21:53:10.714Z,23.68
2023-12-19T21:55:37.169Z,22.43
2023-12-19T21:58:03.666Z,23.09
2023-12-19T22:00:30.037Z,22.41
2023-12-19T22:02:56.427Z,23.33
2023-12-19T22:05:22.800Z,22.08
2023-12-19T22:07:49.457Z,21.66
2023-12-19T22:10:16.368Z,21.51
2023-12-19T22:12:45.154Z,21.64
2023-12-19T22:15:11.928Z,20.88
2023-12-19T22:17:38.441Z,21.38
2023-12-19T22:20:04.963Z,21.58
2023-12-19T22:22:31.392Z,21.38
2023-12-19T22:24:57.830Z,21.00
2023-12-19T22:27:24.290Z,20.98
2023-12-19T22:29:50.642Z,20.98
2023-12-19T22:32:17.039Z,21.12
2023-12-19T22:34:43.437Z,20.64
2023-12-19T22:37:09.823Z,20.10
2023-12-19T22:39:36.306Z,19.50
2023-12-19T22:42:02.757Z,19.46
2023-12-19T22:44:29.162Z,19.23
2023-12-19T22:46:55.591Z,18.73
2023-12-19T22:49:22.154Z,18.09
2023-12-19T22:51:48.618Z,18.77
2023-12-19T22:54:15.040Z,18.23
2023-12-19T22:56:41.428Z,16.60
2023-12-19T22:59:07.836Z,17.60
2023-12-19T23:01:43.040Z,19.04
2023-12-19T23:04:16.852Z,19.55
2023-12-19T23:06:43.382Z,19.18
2023-12-19T23:09:09.895Z,19.38
2023-12-19T23:11:36.326Z,20.29
2023-12-19T23:14:02.797Z,19.66
2023-12-19T23:16:29.546Z,19.78
2023-12-19T23:18:56.353Z,19.35
2023-12-19T23:21:22.835Z,18.88
2023-12-19T23:23:49.313Z,18.55
2023-12-19T23:26:15.669Z,18.48
2023-12-19T23:28:42.007Z,18.86
2023-12-19T23:31:08.482Z,19.94
2023-12-19T23:33:34.948Z,19.68
2023-12-19T23:36:01.296Z,19.17
2023-12-19T23:38:27.676Z,19.32
2023-12-19T23:40:54.031Z,20.09
2023-12-19T23:43:20.587Z,20.63
2023-12-19T23:45:47.005Z,23.00
2023-12-19T23:48:13.465Z,20.26
2023-12-19T23:50:39.894Z,20.06
2023-12-19T23:53:06.280Z,19.55
2023-12-19T23:55:32.649Z,18.99
2023-12-19T23:57:59.098Z,19.39
